createdAt,value
2023-03-27T00:07:42.277Z,1.05
2023-03-27T00:11:36.045Z,1.00
2023-03-27T00:15:54.157Z,0.90
2023-03-27T00:19:47.581Z,1.08
2023-03-27T00:24:05.931Z,1.10
2023-03-27T00:27:59.195Z,1.23
2023-03-27T00:35:56.935Z,1.10
2023-03-27T00:39:50.650Z,1.10
2023-03-27T00:43:44.251Z,1.00
2023-03-27T00:47:39.879Z,1.38
2023-03-27T00:51:58.460Z,1.20
2023-03-27T01:01:04.807Z,1.30
2023-03-27T01:09:37.815Z,1.10
2023-03-27T01:13:38.612Z,1.00
2023-03-27T01:18:10.190Z,1.30
2023-03-27T01:22:22.200Z,1.30
2023-03-27T01:26:35.940Z,1.20
2023-03-27T01:30:40.022Z,1.20
2023-03-27T01:35:00.958Z,1.02
2023-03-27T01:39:18.398Z,1.38
2023-03-27T01:47:42.452Z,1.60
2023-03-27T01:56:26.885Z,1.10
2023-03-27T02:00:51.423Z,1.40
2023-03-27T02:04:55.375Z,1.42
2023-03-27T02:09:12.417Z,1.27
2023-03-27T02:13:09.949Z,1.48
2023-03-27T02:21:02.601Z,1.20
2023-03-27T02:29:46.849Z,1.80
2023-03-27T02:34:25.349Z,1.17
2023-03-27T02:38:45.116Z,1.40
2023-03-27T02:52:34.589Z,1.27
2023-03-27T02:56:40.957Z,1.30
2023-03-27T03:00:39.931Z,1.23
2023-03-27T03:09:02.312Z,1.40
2023-03-27T03:12:55.624Z,1.50
2023-03-27T03:16:48.301Z,1.35
2023-03-27T03:20:41.422Z,1.38
2023-03-27T03:24:35.850Z,1.67
2023-03-27T03:37:17.520Z,1.60
2023-03-27T03:41:10.834Z,1.42
2023-03-27T03:45:04.366Z,1.58
2023-03-27T03:48:58.367Z,1.63
2023-03-27T03:52:52.309Z,1.83
2023-03-27T03:56:45.152Z,1.92
2023-03-27T04:09:27.733Z,2.00
2023-03-27T04:13:20.876Z,2.15
2023-03-27T04:17:29.077Z,2.00
2023-03-27T04:35:06.567Z,2.53
2023-03-27T04:39:03.636Z,2.10
2023-03-27T04:42:56.753Z,2.63
2023-03-27T04:46:50.678Z,2.50
2023-03-27T04:50:51.124Z,2.70
2023-03-27T04:54:46.846Z,2.75
2023-03-27T04:58:41.478Z,3.42
2023-03-27T05:02:34.811Z,3.42
2023-03-27T05:10:29.020Z,3.45
2023-03-27T05:14:25.000Z,4.00
2023-03-27T05:18:17.523Z,4.72
2023-03-27T05:22:10.692Z,5.20
2023-03-27T05:26:36.416Z,4.50
2023-03-27T05:30:31.081Z,4.25
2023-03-27T05:34:23.649Z,4.88
2023-03-27T05:38:17.217Z,4.43
2023-03-27T05:42:27.927Z,4.18
2023-03-27T05:46:21.745Z,4.47
2023-03-27T05:50:16.092Z,4.10
2023-03-27T05:54:08.916Z,4.45
2023-03-27T05:58:02.132Z,4.28
2023-03-27T06:01:55.042Z,4.22
2023-03-27T06:05:49.183Z,4.18
2023-03-27T06:09:41.899Z,4.45
2023-03-27T06:13:34.616Z,4.70
2023-03-27T06:17:27.687Z,4.55
2023-03-27T06:21:21.105Z,4.50
2023-03-27T06:25:15.538Z,4.45
2023-03-27T06:29:08.882Z,4.72
2023-03-27T06:33:01.475Z,5.28
2023-03-27T06:36:54.319Z,5.15
2023-03-27T06:40:47.666Z,4.82
2023-03-27T06:44:40.172Z,5.70
2023-03-27T06:48:33.255Z,5.68
2023-03-27T06:52:26.048Z,4.85
2023-03-27T06:56:19.099Z,4.50
2023-03-27T07:00:19.410Z,4.43
2023-03-27T07:04:12.614Z,4.18
2023-03-27T07:08:22.539Z,3.88
2023-03-27T07:12:16.652Z,3.92
2023-03-27T07:16:12.594Z,4.10
2023-03-27T07:20:06.492Z,4.68
2023-03-27T07:23:59.924Z,5.43
2023-03-27T07:27:53.164Z,4.82
2023-03-27T07:31:56.983Z,5.45
2023-03-27T07:35:52.460Z,4.78
2023-03-27T07:39:45.719Z,5.10
2023-03-27T07:43:38.688Z,4.68
2023-03-27T07:47:31.502Z,4.18
2023-03-27T07:51:25.154Z,4.30
2023-03-27T07:55:19.190Z,4.22
2023-03-27T07:59:12.350Z,4.22
2023-03-27T08:03:08.233Z,4.82
2023-03-27T08:07:01.330Z,5.28
2023-03-27T08:10:55.707Z,4.00
2023-03-27T08:14:48.632Z,3.28
2023-03-27T08:18:41.421Z,3.75
2023-03-27T08:22:34.408Z,3.53
2023-03-27T08:26:27.965Z,3.30
2023-03-27T08:30:22.001Z,2.88
2023-03-27T08:34:14.763Z,2.80
2023-03-27T08:38:13.787Z,2.50
2023-03-27T08:42:20.290Z,2.30
2023-03-27T08:46:19.648Z,3.40
2023-03-27T08:50:26.530Z,3.63
2023-03-27T08:54:48.456Z,4.10
2023-03-27T08:58:42.490Z,3.75
2023-03-27T09:02:48.703Z,4.85
2023-03-27T09:06:53.702Z,4.18
2023-03-27T09:11:09.980Z,4.55
2023-03-27T09:15:03.037Z,4.35
2023-03-27T09:19:27.794Z,6.25
2023-03-27T09:23:28.201Z,5.82
2023-03-27T09:27:32.729Z,5.35
2023-03-27T09:31:30.596Z,5.28
2023-03-27T09:35:24.129Z,5.68
2023-03-27T09:39:22.620Z,5.25
2023-03-27T09:43:23.087Z,5.63
2023-03-27T09:47:21.546Z,5.93
2023-03-27T09:51:40.138Z,6.40
2023-03-27T09:55:34.751Z,7.45
2023-03-27T09:59:40.691Z,7.40
2023-03-27T10:03:50.322Z,7.90
2023-03-27T10:07:44.276Z,8.85
2023-03-27T10:11:37.305Z,8.98
2023-03-27T10:15:39.814Z,9.40
2023-03-27T10:19:39.833Z,9.75
2023-03-27T10:23:49.943Z,9.77
2023-03-27T10:27:43.951Z,10.30
2023-03-27T10:31:40.032Z,10.65
2023-03-27T10:35:36.780Z,10.98
2023-03-27T10:39:34.393Z,11.68
2023-03-27T10:43:43.788Z,11.52
2023-03-27T10:47:36.703Z,11.10
2023-03-27T10:52:14.368Z,11.20
2023-03-27T10:56:51.578Z,10.93
2023-03-27T11:00:52.508Z,10.75
2023-03-27T11:04:53.916Z,11.80
2023-03-27T11:09:05.982Z,11.30
2023-03-27T11:13:09.282Z,11.50
2023-03-27T11:17:06.745Z,11.30
2023-03-27T11:21:08.486Z,10.88
2023-03-27T11:25:16.079Z,11.98
2023-03-27T11:29:32.534Z,12.00
2023-03-27T11:33:44.294Z,10.57
2023-03-27T11:37:45.846Z,10.73
2023-03-27T11:41:38.915Z,9.82
2023-03-27T11:45:41.224Z,8.35
2023-03-27T11:50:02.011Z,8.07
2023-03-27T11:54:10.372Z,7.25
2023-03-27T11:58:22.007Z,6.65
2023-03-27T12:02:18.530Z,5.75
2023-03-27T12:06:40.936Z,4.18
2023-03-27T12:10:40.894Z,3.28
2023-03-27T12:14:48.964Z,2.70
2023-03-27T12:19:28.583Z,2.60
2023-03-27T12:23:38.042Z,2.10
2023-03-27T12:27:45.209Z,2.28
2023-03-27T12:32:08.545Z,2.00
2023-03-27T12:36:06.674Z,1.85
2023-03-27T12:40:00.415Z,1.83
2023-03-27T12:43:59.005Z,1.70
2023-03-27T12:48:11.894Z,1.58
2023-03-27T12:52:05.477Z,1.80
2023-03-27T12:56:13.382Z,1.60
2023-03-27T13:00:10.670Z,1.60
2023-03-27T13:04:37.279Z,1.38
2023-03-27T13:09:04.516Z,1.90
2023-03-27T13:13:04.746Z,1.80
2023-03-27T13:16:57.597Z,1.70
2023-03-27T13:20:59.003Z,2.05
2023-03-27T13:25:10.048Z,1.80
2023-03-27T13:29:03.650Z,4.07
2023-03-27T13:33:24.460Z,2.45
2023-03-27T13:37:17.659Z,2.42
2023-03-27T13:41:43.070Z,3.28
2023-03-27T13:46:04.020Z,3.00
2023-03-27T13:50:14.258Z,3.05
2023-03-27T13:54:53.490Z,3.78
2023-03-27T13:59:04.961Z,3.38
2023-03-27T14:03:11.213Z,2.88
2023-03-27T14:07:37.761Z,2.72
2023-03-27T14:11:43.362Z,2.72
2023-03-27T14:15:51.217Z,3.88
2023-03-27T14:20:10.774Z,4.15
2023-03-27T14:24:23.398Z,3.00
2023-03-27T14:28:49.924Z,2.50
2023-03-27T14:32:46.955Z,3.00
2023-03-27T14:36:48.807Z,3.10
2023-03-27T14:40:57.296Z,2.22
2023-03-27T14:45:22.059Z,2.25
2023-03-27T14:49:24.513Z,2.60
2023-03-27T14:53:26.705Z,2.25
2023-03-27T14:57:28.565Z,2.10
2023-03-27T15:01:30.505Z,2.40
2023-03-27T15:05:25.227Z,2.25
2023-03-27T15:09:24.846Z,2.78
2023-03-27T15:13:18.102Z,2.67
2023-03-27T15:17:18.591Z,2.25
2023-03-27T15:21:20.934Z,2.22
2023-03-27T15:29:45.681Z,3.70
2023-03-27T15:33:57.374Z,3.00
2023-03-27T15:37:51.225Z,2.70
2023-03-27T15:41:51.591Z,2.35
2023-03-27T15:46:01.050Z,2.45
2023-03-27T15:50:28.892Z,2.33
2023-03-27T15:54:30.402Z,2.40
2023-03-27T15:58:30.273Z,2.50
2023-03-27T16:02:29.165Z,2.08
2023-03-27T16:06:37.298Z,2.33
2023-03-27T16:10:33.648Z,2.80
2023-03-27T16:14:33.573Z,3.20
2023-03-27T16:22:42.199Z,5.35
2023-03-27T16:26:40.907Z,3.45
2023-03-27T16:30:36.847Z,3.90
2023-03-27T16:34:30.824Z,3.45
2023-03-27T16:38:24.641Z,2.83
2023-03-27T16:42:24.198Z,3.70
2023-03-27T16:46:27.054Z,3.95
2023-03-27T16:50:24.272Z,3.78
2023-03-27T16:54:18.258Z,3.67
2023-03-27T16:58:11.932Z,3.13
2023-03-27T17:02:08.596Z,3.53
2023-03-27T17:06:04.194Z,5.10
2023-03-27T17:09:58.044Z,4.50
2023-03-27T17:13:55.279Z,3.53
2023-03-27T17:17:49.884Z,3.38
2023-03-27T17:21:46.090Z,3.67
2023-03-27T17:25:39.144Z,3.50
2023-03-27T17:29:32.460Z,2.90
2023-03-27T17:33:27.665Z,3.63
2023-03-27T17:37:21.222Z,4.53
2023-03-27T17:41:18.789Z,4.75
2023-03-27T17:45:12.494Z,3.37
2023-03-27T17:49:05.345Z,4.05
2023-03-27T17:52:59.591Z,3.20
2023-03-27T17:56:53.268Z,3.08
2023-03-27T18:00:49.195Z,3.13
2023-03-27T18:04:42.669Z,3.53
2023-03-27T18:08:36.057Z,2.65
2023-03-27T18:12:33.414Z,2.95
2023-03-27T18:16:27.525Z,5.50
2023-03-27T18:20:21.069Z,3.42
2023-03-27T18:24:14.870Z,2.72
2023-03-27T18:28:10.718Z,4.20
2023-03-27T18:32:05.793Z,4.68
2023-03-27T18:36:01.179Z,6.32
2023-03-27T18:39:54.994Z,6.57
2023-03-27T18:43:49.396Z,3.88
2023-03-27T18:47:49.737Z,6.72
2023-03-27T18:51:44.974Z,3.78
2023-03-27T18:55:38.628Z,4.63
2023-03-27T18:59:32.426Z,2.92
2023-03-27T19:03:33.198Z,2.92
2023-03-27T19:07:27.817Z,3.05
2023-03-27T19:11:23.360Z,3.22
2023-03-27T19:15:20.174Z,2.78
2023-03-27T19:19:13.877Z,2.80
2023-03-27T19:23:07.514Z,2.50
2023-03-27T19:27:02.085Z,2.50
2023-03-27T19:30:57.024Z,2.63
2023-03-27T19:34:50.946Z,2.30
2023-03-27T19:38:44.979Z,1.90
2023-03-27T19:42:39.087Z,2.20
2023-03-27T19:46:33.121Z,2.60
2023-03-27T19:50:27.837Z,2.00
2023-03-27T19:54:21.594Z,2.50
2023-03-27T19:58:16.373Z,2.20
2023-03-27T20:02:14.269Z,2.30
2023-03-27T20:06:18.617Z,2.10
2023-03-27T20:10:12.569Z,2.20
2023-03-27T20:14:06.916Z,1.95
2023-03-27T20:18:01.196Z,2.05
2023-03-27T20:21:56.194Z,2.00
2023-03-27T20:25:52.227Z,1.85
2023-03-27T20:29:50.891Z,2.00
2023-03-27T20:33:44.964Z,2.00
2023-03-27T20:37:40.687Z,2.15
2023-03-27T20:41:39.381Z,2.08
2023-03-27T20:45:32.409Z,2.47
2023-03-27T20:53:32.449Z,2.00
2023-03-27T20:57:26.402Z,2.08
2023-03-27T21:01:27.994Z,1.90
2023-03-27T21:05:21.128Z,1.80
2023-03-27T21:09:16.492Z,1.83
2023-03-27T21:13:09.160Z,2.00
2023-03-27T21:17:02.219Z,2.00
2023-03-27T21:20:55.276Z,1.63
2023-03-27T21:24:47.960Z,2.33
2023-03-27T21:28:40.965Z,2.20
2023-03-27T21:32:33.488Z,1.98
2023-03-27T21:36:29.322Z,1.90
2023-03-27T21:40:22.309Z,2.08
2023-03-27T21:44:16.113Z,1.98
2023-03-27T21:48:10.793Z,2.20
2023-03-27T21:52:05.056Z,1.98
2023-03-27T21:55:58.328Z,1.95
2023-03-27T21:59:51.233Z,1.77
2023-03-27T22:03:44.376Z,1.80
2023-03-27T22:07:37.002Z,1.60
2023-03-27T22:11:32.737Z,1.80
2023-03-27T22:15:25.656Z,2.10
2023-03-27T22:19:18.635Z,1.92
2023-03-27T22:23:11.431Z,2.00
2023-03-27T22:27:04.659Z,1.98
2023-03-27T22:30:57.670Z,1.90
2023-03-27T22:34:51.858Z,1.80
2023-03-27T22:38:44.506Z,1.90
2023-03-27T22:42:37.402Z,1.88
2023-03-27T22:46:30.228Z,2.08
2023-03-27T22:50:22.977Z,2.00
2023-03-27T22:54:15.789Z,1.70
2023-03-27T22:58:08.388Z,1.90
2023-03-27T23:02:01.293Z,2.05
2023-03-27T23:05:54.811Z,1.83
2023-03-27T23:09:47.778Z,1.65
2023-03-27T23:13:41.348Z,1.90
2023-03-27T23:17:34.149Z,2.10
2023-03-27T23:21:28.173Z,2.10
2023-03-27T23:25:21.232Z,2.10
2023-03-27T23:29:14.009Z,1.80
2023-03-27T23:33:07.112Z,2.25
2023-03-27T23:37:00.217Z,2.42
2023-03-27T23:40:57.271Z,2.38
2023-03-27T23:44:49.698Z,2.75
2023-03-27T23:48:43.812Z,2.50
2023-03-27T23:52:36.573Z,2.40
2023-03-27T23:56:29.241Z,2.50
